Home

PKWA Terminal Aerodrome Forecast (TAF)small logo


TAF provided by NWS Guam
2014/11/24 18:26
TAF PKWA 241720Z 2418/2518 05014G19KT P6SM VCSH FEW018 SCT050

      



Site Map | Contact Us | Copyright © 2007 Atmospheric Technology Services Company. All rights reserved.